Time;durP1;ratioP1;P1;durP2;ratioP2;P2;SDS_P1;SDS_P2;PMS_P1;PMS_P2;Temp;Humidity;BMP_temperature;BMP_pressure;BME280_temperature;BME280_humidity;BME280_pressure;Samples;Min_cycle;Max_cycle;Signal;HPM_P1;HPM_P2
2024/01/11 00:00:11;;;;;;;26.03;12.73;;;-4.50;99.90;;;;;;4965401;28;20217;-61
2024/01/11 00:02:38;;;;;;;23.27;11.07;;;;;;;;;;4998969;28;20789;-61
2024/01/11 00:05:08;;;;;;;27.23;13.17;;;-4.60;99.90;;;;;;4988693;28;20685;-61
2024/01/11 00:07:35;;;;;;;28.53;14.03;;;-4.50;99.90;;;;;;4999489;28;20287;-61
2024/01/11 00:10:03;;;;;;;27.13;14.67;;;-4.60;99.90;;;;;;4990670;28;20199;-61
2024/01/11 00:12:31;;;;;;;27.00;13.13;;;-4.40;99.90;;;;;;4991466;28;20214;-61
2024/01/11 00:14:59;;;;;;;28.57;13.90;;;-4.60;99.90;;;;;;4979754;28;20205;-61
2024/01/11 00:17:26;;;;;;;24.90;11.93;;;-4.60;99.90;;;;;;4970095;28;20230;-61
2024/01/11 00:19:53;;;;;;;29.43;14.20;;;-4.50;99.90;;;;;;4992145;28;20291;-61
2024/01/11 00:22:21;;;;;;;27.57;13.30;;;-4.50;99.90;;;;;;5004108;28;20235;-61
2024/01/11 00:24:48;;;;;;;25.43;12.93;;;-4.60;99.90;;;;;;4991896;28;20226;-61
2024/01/11 00:27:15;;;;;;;29.23;13.63;;;-4.50;99.90;;;;;;4996172;28;20548;-60
2024/01/11 00:29:42;;;;;;;21.37;13.00;;;-4.50;99.90;;;;;;4982283;28;20221;-62
2024/01/11 00:32:08;;;;;;;23.00;11.83;;;-4.50;99.90;;;;;;4967492;28;20284;-61
2024/01/11 00:34:36;;;;;;;26.00;12.30;;;-4.50;99.90;;;;;;4996519;28;20303;-61
2024/01/11 00:37:03;;;;;;;25.07;13.43;;;-4.50;99.90;;;;;;4993199;28;20232;-62
2024/01/11 00:39:31;;;;;;;25.03;13.40;;;-4.50;99.90;;;;;;5002062;28;20688;-61
2024/01/11 00:41:58;;;;;;;21.43;11.83;;;-4.50;99.90;;;;;;4982539;28;20246;-61
2024/01/11 00:44:25;;;;;;;23.77;11.77;;;-4.40;99.90;;;;;;4991580;28;20357;-61
2024/01/11 00:46:52;;;;;;;25.57;11.97;;;;;;;;;;4962623;28;20206;-62
2024/01/11 00:49:19;;;;;;;25.90;13.33;;;-5.30;99.90;;;;;;4992215;28;20307;-61
2024/01/11 00:51:46;;;;;;;26.20;12.27;;;-3.90;99.90;;;;;;4995026;28;20203;-61
2024/01/11 00:54:13;;;;;;;25.67;12.13;;;-4.60;99.90;;;;;;5002700;28;20205;-61
2024/01/11 00:56:41;;;;;;;26.93;11.30;;;-4.50;99.90;;;;;;4985913;28;20240;-61
2024/01/11 00:59:08;;;;;;;24.97;12.60;;;-3.90;99.90;;;;;;4991565;28;21488;-61
2024/01/11 01:01:35;;;;;;;25.73;12.87;;;;;;;;;;4991937;28;21783;-61
2024/01/11 01:04:02;;;;;;;21.77;11.90;;;-4.40;99.90;;;;;;4970172;28;20285;-61
2024/01/11 01:06:29;;;;;;;23.00;11.90;;;-4.40;99.90;;;;;;4994452;28;20915;-61
2024/01/11 01:08:56;;;;;;;26.97;11.93;;;-4.50;99.90;;;;;;4987469;28;20212;-61
2024/01/11 01:11:23;;;;;;;22.67;12.00;;;-4.50;99.90;;;;;;4985192;28;21061;-61
2024/01/11 01:13:52;;;;;;;28.30;12.30;;;-4.60;99.90;;;;;;4999923;28;20206;-61
2024/01/11 01:16:18;;;;;;;33.70;12.57;;;-4.60;99.90;;;;;;4985481;28;20320;-61
2024/01/11 01:18:45;;;;;;;23.70;11.63;;;-4.50;99.90;;;;;;4972604;28;20208;-61
2024/01/11 01:21:12;;;;;;;25.33;11.50;;;-4.40;99.90;;;;;;4986066;28;20953;-61
2024/01/11 01:23:39;;;;;;;21.67;11.83;;;-4.10;99.90;;;;;;4991692;28;20233;-62
2024/01/11 01:26:07;;;;;;;19.07;10.77;;;-4.60;99.90;;;;;;5001496;28;20203;-61
2024/01/11 01:28:34;;;;;;;22.00;11.67;;;-4.60;99.90;;;;;;4982676;28;20227;-62
2024/01/11 01:31:02;;;;;;;25.47;12.13;;;-3.00;99.90;;;;;;4998017;28;20843;-61
2024/01/11 01:33:29;;;;;;;23.23;11.83;;;-4.30;99.90;;;;;;5001591;28;20210;-62
2024/01/11 01:35:56;;;;;;;25.43;11.70;;;-4.20;99.90;;;;;;4956367;28;20213;-61
2024/01/11 01:38:23;;;;;;;26.10;12.03;;;-4.50;99.90;;;;;;4985004;28;20322;-61
2024/01/11 01:40:50;;;;;;;23.97;12.03;;;-4.50;99.90;;;;;;5007359;28;20211;-61
2024/01/11 01:43:17;;;;;;;24.40;11.57;;;-4.60;99.90;;;;;;4976188;28;20208;-61
2024/01/11 01:45:44;;;;;;;21.43;12.43;;;-4.50;99.90;;;;;;4988513;28;20768;-61
2024/01/11 01:48:12;;;;;;;23.33;12.00;;;-4.40;99.90;;;;;;4998480;28;20742;-61
2024/01/11 01:50:39;;;;;;;22.17;10.90;;;-4.60;99.90;;;;;;4971617;28;20563;-61
2024/01/11 01:53:07;;;;;;;22.70;11.13;;;-4.70;99.90;;;;;;4991700;28;20227;-61
2024/01/11 01:55:34;;;;;;;18.63;9.40;;;-4.70;99.90;;;;;;5002663;28;20230;-61
2024/01/11 01:58:03;;;;;;;18.50;9.07;;;-4.70;99.90;;;;;;4984885;28;20237;-61
2024/01/11 02:00:30;;;;;;;19.80;9.60;;;-4.60;99.90;;;;;;4981679;28;21326;-61
2024/01/11 02:02:59;;;;;;;23.10;11.07;;;-4.60;99.90;;;;;;5002423;28;20295;-61
2024/01/11 02:05:27;;;;;;;20.37;10.67;;;-4.70;99.90;;;;;;4968174;28;20210;-61
2024/01/11 02:07:54;;;;;;;21.50;10.20;;;-4.70;99.90;;;;;;5001084;28;20788;-61
2024/01/11 02:10:21;;;;;;;19.33;11.00;;;-4.60;99.90;;;;;;4985056;28;20200;-61
2024/01/11 02:12:48;;;;;;;19.10;10.07;;;-4.50;99.90;;;;;;4994262;28;20226;-61
2024/01/11 02:15:15;;;;;;;23.80;11.27;;;-4.80;99.90;;;;;;4979663;28;20292;-64
2024/01/11 02:17:42;;;;;;;22.10;11.63;;;-4.40;99.90;;;;;;4999952;28;20778;-63
2024/01/11 02:20:11;;;;;;;17.97;9.73;;;-4.50;99.90;;;;;;5000429;28;20202;-64
2024/01/11 02:22:41;;;;;;;21.20;10.20;;;-4.90;99.90;;;;;;4966030;28;20704;-64
2024/01/11 02:25:10;;;;;;;19.77;9.87;;;-4.60;99.90;;;;;;4982894;28;20988;-63
2024/01/11 02:27:47;;;;;;;15.70;8.83;;;-4.60;99.90;;;;;;4989704;28;20259;-63
2024/01/11 02:30:15;;;;;;;18.20;9.50;;;-4.70;99.90;;;;;;4981209;28;20204;-62
2024/01/11 02:32:43;;;;;;;21.47;9.27;;;-4.60;99.90;;;;;;4992469;28;20296;-61
2024/01/11 02:35:11;;;;;;;20.20;9.87;;;-4.70;99.90;;;;;;5000003;28;20205;-61
2024/01/11 02:37:39;;;;;;;19.30;10.17;;;-4.60;99.90;;;;;;4958198;28;20237;-61
2024/01/11 02:40:08;;;;;;;17.13;9.67;;;-4.60;99.90;;;;;;4998356;28;20209;-61
2024/01/11 02:42:36;;;;;;;18.20;8.90;;;-4.60;99.90;;;;;;4988994;28;20294;-61
2024/01/11 02:45:05;;;;;;;21.07;8.37;;;-4.50;99.90;;;;;;4990775;28;20212;-61
2024/01/11 02:47:32;;;;;;;20.07;10.10;;;-4.50;99.90;;;;;;4983353;28;23240;-61
2024/01/11 02:49:58;;;;;;;16.40;9.13;;;-4.60;99.90;;;;;;5001902;28;20287;-61
2024/01/11 02:52:25;;;;;;;17.30;9.57;;;-4.50;99.90;;;;;;4968145;28;20217;-62
2024/01/11 02:54:52;;;;;;;21.13;10.17;;;-4.60;99.90;;;;;;4999824;28;20682;-61
2024/01/11 02:57:19;;;;;;;15.70;7.93;;;-4.70;99.90;;;;;;4977901;28;20251;-62
2024/01/11 02:59:47;;;;;;;22.17;9.57;;;-5.60;99.90;;;;;;4990473;28;20698;-61
2024/01/11 03:02:14;;;;;;;19.07;10.10;;;-4.90;99.90;;;;;;4982769;28;20386;-61
2024/01/11 03:04:41;;;;;;;19.13;8.33;;;-4.50;99.90;;;;;;5004721;28;20201;-62
2024/01/11 03:07:08;;;;;;;20.97;9.23;;;-4.80;99.90;;;;;;4974997;28;20280;-62
2024/01/11 03:09:35;;;;;;;16.27;8.50;;;-4.50;99.90;;;;;;4989507;28;20205;-61
2024/01/11 03:12:02;;;;;;;21.30;8.73;;;-4.40;99.90;;;;;;4991651;28;20209;-62
2024/01/11 03:14:29;;;;;;;16.27;7.90;;;;;;;;;;4995161;28;20199;-62
2024/01/11 03:16:57;;;;;;;18.00;8.27;;;-4.50;99.90;;;;;;4994699;28;20660;-61
2024/01/11 03:19:24;;;;;;;18.20;8.90;;;-4.20;99.90;;;;;;4997939;28;20913;-62
2024/01/11 03:21:51;;;;;;;20.40;9.63;;;-4.40;99.90;;;;;;5007947;28;21239;-62
2024/01/11 03:24:18;;;;;;;16.97;9.07;;;-3.80;99.90;;;;;;4974720;28;20229;-61
2024/01/11 03:26:44;;;;;;;21.50;8.77;;;-5.40;99.90;;;;;;4989150;28;20217;-61
2024/01/11 03:29:11;;;;;;;13.10;8.27;;;-4.30;99.90;;;;;;5005627;28;20229;-62
2024/01/11 03:31:41;;;;;;;17.53;9.27;;;-4.20;99.90;;;;;;4986923;28;20205;-62
2024/01/11 03:34:09;;;;;;;18.67;9.03;;;-4.10;99.90;;;;;;5000302;28;20209;-61
2024/01/11 03:36:36;;;;;;;16.83;9.20;;;-4.30;99.90;;;;;;5006597;28;20284;-62
2024/01/11 03:39:03;;;;;;;20.73;9.77;;;-4.10;99.90;;;;;;4971481;28;20225;-62
2024/01/11 03:41:30;;;;;;;16.70;8.13;;;-3.90;99.90;;;;;;4998780;28;20204;-61
2024/01/11 03:43:57;;;;;;;19.13;8.80;;;-4.00;99.90;;;;;;5003405;28;22057;-61
2024/01/11 03:46:24;;;;;;;17.63;9.10;;;;;;;;;;4999710;28;20217;-61
2024/01/11 03:48:51;;;;;;;27.97;10.63;;;-4.10;99.90;;;;;;4989117;28;20206;-62
2024/01/11 03:51:19;;;;;;;17.93;9.73;;;-4.00;99.90;;;;;;5008495;28;20640;-61
2024/01/11 03:53:46;;;;;;;21.87;9.83;;;-3.40;99.90;;;;;;4975954;28;20202;-62
2024/01/11 03:56:13;;;;;;;21.70;10.47;;;-4.00;99.90;;;;;;5004514;28;20332;-62
2024/01/11 03:58:41;;;;;;;20.60;10.33;;;-4.60;99.90;;;;;;4994241;28;20241;-63
2024/01/11 04:01:10;;;;;;;22.30;10.13;;;-3.80;99.90;;;;;;4999910;28;20571;-62
2024/01/11 04:03:37;;;;;;;22.90;9.93;;;-3.50;99.90;;;;;;4987471;28;20206;-62
2024/01/11 04:06:04;;;;;;;28.00;10.37;;;-3.60;99.90;;;;;;5005398;28;20211;-61
2024/01/11 04:08:33;;;;;;;21.87;10.00;;;-3.70;99.90;;;;;;4975008;28;20328;-62
2024/01/11 04:11:03;;;;;;;22.40;9.97;;;-3.80;99.90;;;;;;5004141;28;20699;-61
2024/01/11 04:13:30;;;;;;;23.20;10.30;;;-3.70;99.90;;;;;;4999302;28;20202;-62
2024/01/11 04:15:57;;;;;;;22.03;9.50;;;-3.80;99.90;;;;;;5005248;28;21012;-62
2024/01/11 04:18:24;;;;;;;24.77;10.10;;;-3.70;99.90;;;;;;4999856;28;20229;-62
2024/01/11 04:20:51;;;;;;;23.80;10.70;;;-3.90;99.90;;;;;;5002332;28;20627;-62
2024/01/11 04:23:18;;;;;;;21.73;9.73;;;-3.80;99.90;;;;;;5005194;28;20206;-62
2024/01/11 04:25:46;;;;;;;19.40;9.13;;;-3.80;99.90;;;;;;4969059;28;20228;-62
2024/01/11 04:28:13;;;;;;;19.20;9.20;;;-3.80;99.90;;;;;;5004182;28;20312;-62
2024/01/11 04:30:40;;;;;;;21.43;10.83;;;;;;;;;;4991169;28;20232;-62
2024/01/11 04:33:07;;;;;;;25.30;10.17;;;-3.70;99.90;;;;;;4997523;28;20209;-62
2024/01/11 04:35:34;;;;;;;23.37;9.57;;;-3.70;99.90;;;;;;4988550;28;20197;-61
2024/01/11 04:38:01;;;;;;;21.03;10.63;;;-3.80;99.90;;;;;;5001159;28;20328;-62
2024/01/11 04:40:27;;;;;;;24.30;11.33;;;-3.60;99.90;;;;;;4965860;28;20211;-61
2024/01/11 04:42:56;;;;;;;25.50;11.27;;;-3.80;99.90;;;;;;5003444;28;20206;-62
2024/01/11 04:45:22;;;;;;;21.30;10.23;;;-3.80;99.90;;;;;;4993461;28;20210;-61
2024/01/11 04:47:51;;;;;;;27.33;11.67;;;-3.80;99.90;;;;;;4981239;28;20779;-61
2024/01/11 04:50:18;;;;;;;20.43;10.20;;;-3.70;99.90;;;;;;4992259;28;20241;-61
2024/01/11 04:52:45;;;;;;;26.53;11.20;;;-3.70;99.90;;;;;;4997980;28;20195;-62
2024/01/11 04:55:12;;;;;;;25.90;11.07;;;-4.10;99.90;;;;;;5003156;28;20207;-62
2024/01/11 04:57:39;;;;;;;25.53;11.30;;;;;;;;;;4962074;28;20280;-62
2024/01/11 05:00:09;;;;;;;34.00;9.93;;;-3.70;99.90;;;;;;4989657;28;20216;-62
2024/01/11 05:02:36;;;;;;;30.70;11.77;;;-3.50;99.90;;;;;;5000659;28;20689;-61
2024/01/11 05:05:02;;;;;;;26.33;11.73;;;-3.70;99.90;;;;;;4983666;28;20265;-61
2024/01/11 05:07:29;;;;;;;26.73;10.60;;;-3.60;99.90;;;;;;5005187;28;20225;-61
2024/01/11 05:09:56;;;;;;;25.90;12.23;;;-3.60;99.90;;;;;;4999250;28;21030;-61
2024/01/11 05:12:23;;;;;;;28.67;10.87;;;-3.60;99.90;;;;;;4946488;28;20336;-62
2024/01/11 05:14:50;;;;;;;26.10;12.07;;;;;;;;;;4999268;28;20226;-62
2024/01/11 05:17:18;;;;;;;21.90;10.43;;;-3.60;99.90;;;;;;4983893;28;20583;-62
2024/01/11 05:19:45;;;;;;;28.60;12.43;;;-3.40;99.90;;;;;;4993502;28;20229;-62
2024/01/11 05:22:12;;;;;;;29.43;12.13;;;-3.60;99.90;;;;;;4992037;28;20202;-62
2024/01/11 05:24:39;;;;;;;27.67;12.87;;;-3.40;99.90;;;;;;4993670;28;20198;-61
2024/01/11 05:27:06;;;;;;;27.13;12.90;;;-3.40;99.90;;;;;;4964496;28;20219;-62
2024/01/11 05:29:33;;;;;;;31.63;14.40;;;-3.40;99.90;;;;;;4995477;28;20548;-61
2024/01/11 05:31:59;;;;;;;32.77;12.67;;;-2.60;99.90;;;;;;4984409;28;20643;-61
2024/01/11 05:34:28;;;;;;;28.60;13.17;;;-3.20;99.90;;;;;;4991715;28;20219;-62
2024/01/11 05:36:55;;;;;;;25.77;11.27;;;-3.20;99.90;;;;;;4975561;28;20227;-61
2024/01/11 05:39:22;;;;;;;24.60;11.17;;;-3.20;99.90;;;;;;4992583;28;20230;-62
2024/01/11 05:41:48;;;;;;;24.00;11.13;;;-3.30;99.90;;;;;;5001302;28;20209;-62
2024/01/11 05:44:15;;;;;;;27.70;11.30;;;-3.20;99.90;;;;;;4966029;28;20907;-62
2024/01/11 05:46:42;;;;;;;29.37;12.10;;;;;;;;;;4986989;28;21111;-62
2024/01/11 05:49:09;;;;;;;26.57;12.80;;;-3.10;99.90;;;;;;4997929;28;20210;-62
2024/01/11 05:51:37;;;;;;;26.87;12.07;;;-3.10;99.90;;;;;;4989502;28;20707;-61
2024/01/11 05:54:04;;;;;;;25.97;12.33;;;-2.80;99.90;;;;;;4992611;28;20597;-62
2024/01/11 05:56:33;;;;;;;26.10;11.80;;;-3.10;99.90;;;;;;4991721;28;20213;-61
2024/01/11 05:58:59;;;;;;;25.43;11.27;;;-3.10;99.90;;;;;;4957216;28;20261;-62
2024/01/11 06:01:26;;;;;;;25.23;11.63;;;-3.10;99.90;;;;;;4975778;28;20222;-61
2024/01/11 06:03:53;;;;;;;27.97;12.33;;;-2.80;99.90;;;;;;4982199;28;20345;-62
2024/01/11 06:06:20;;;;;;;27.40;12.33;;;-2.90;99.90;;;;;;4973144;28;20451;-62
2024/01/11 06:08:48;;;;;;;25.57;12.53;;;-2.60;99.90;;;;;;4972974;28;20227;-62
2024/01/11 06:11:18;;;;;;;29.47;11.23;;;-2.40;99.90;;;;;;4985771;28;20233;-62
2024/01/11 06:13:44;;;;;;;27.27;12.97;;;-2.60;99.90;;;;;;4958320;28;20364;-63
2024/01/11 06:16:11;;;;;;;29.30;12.60;;;-2.70;99.90;;;;;;4983908;28;20218;-62
2024/01/11 06:18:38;;;;;;;24.13;12.43;;;;;;;;;;4985275;28;20223;-62
2024/01/11 06:21:05;;;;;;;27.00;12.10;;;-2.90;99.90;;;;;;4984241;28;20227;-62
2024/01/11 06:23:32;;;;;;;27.60;12.53;;;-2.80;99.90;;;;;;4992260;28;20233;-62
2024/01/11 06:26:00;;;;;;;24.73;12.47;;;-2.80;99.90;;;;;;4991256;28;20226;-63
2024/01/11 06:28:27;;;;;;;30.80;13.00;;;-2.70;99.90;;;;;;4964382;28;20324;-63
2024/01/11 06:30:54;;;;;;;37.00;13.40;;;-2.80;99.90;;;;;;4996946;28;20579;-62
2024/01/11 06:33:21;;;;;;;27.07;12.17;;;-2.80;99.90;;;;;;4996467;28;20703;-63
2024/01/11 06:35:48;;;;;;;29.37;12.43;;;-2.80;99.90;;;;;;4994405;28;20790;-62
2024/01/11 06:38:15;;;;;;;28.63;13.27;;;-2.90;99.90;;;;;;4999859;28;20200;-62
2024/01/11 06:40:42;;;;;;;28.47;13.03;;;-3.00;99.90;;;;;;4986674;28;20230;-62
2024/01/11 06:43:11;;;;;;;30.30;13.60;;;-2.90;99.90;;;;;;5003906;28;20218;-63
2024/01/11 06:45:38;;;;;;;29.90;13.27;;;-2.80;99.90;;;;;;4971567;28;20402;-62
2024/01/11 06:48:06;;;;;;;30.70;15.13;;;-2.90;99.90;;;;;;4999605;28;20194;-62
2024/01/11 06:50:33;;;;;;;36.10;14.53;;;-2.90;99.90;;;;;;4988896;28;20354;-62
2024/01/11 06:53:00;;;;;;;29.93;13.00;;;-3.20;99.90;;;;;;4996774;28;20205;-62
2024/01/11 06:55:27;;;;;;;32.73;14.10;;;-2.70;99.90;;;;;;4979585;28;20475;-62
2024/01/11 06:57:54;;;;;;;36.53;13.67;;;-2.30;99.90;;;;;;4991518;28;20284;-62
2024/01/11 07:00:22;;;;;;;32.90;14.30;;;-2.70;99.90;;;;;;4964814;28;20849;-62
2024/01/11 07:02:49;;;;;;;27.73;13.07;;;-2.70;99.90;;;;;;5000891;28;20222;-62
2024/01/11 07:05:16;;;;;;;31.70;13.17;;;-2.80;99.90;;;;;;4997080;28;20207;-62
2024/01/11 07:07:43;;;;;;;34.03;14.33;;;-2.60;99.90;;;;;;5000165;28;20512;-62
2024/01/11 07:10:11;;;;;;;34.00;13.83;;;-2.70;99.90;;;;;;4995904;28;20229;-62
2024/01/11 07:12:41;;;;;;;36.77;14.23;;;-2.70;99.90;;;;;;5002527;28;20207;-62
2024/01/11 07:15:09;;;;;;;31.43;15.10;;;-2.80;99.90;;;;;;4968454;28;20221;-62
2024/01/11 07:17:37;;;;;;;38.83;15.17;;;-2.70;99.90;;;;;;5000669;28;20198;-62
2024/01/11 07:20:05;;;;;;;36.00;14.73;;;-2.80;99.90;;;;;;5002602;28;20237;-62
2024/01/11 07:22:31;;;;;;;37.87;15.30;;;-3.00;99.90;;;;;;5002552;28;20299;-62
2024/01/11 07:24:58;;;;;;;31.97;15.23;;;-2.80;99.90;;;;;;5002864;28;20199;-62
2024/01/11 07:27:25;;;;;;;31.33;14.33;;;-2.30;99.90;;;;;;4992169;28;20221;-64
2024/01/11 07:29:52;;;;;;;37.83;16.00;;;-2.70;99.90;;;;;;4967776;28;20206;-64
2024/01/11 07:32:19;;;;;;;37.23;15.00;;;-2.70;99.90;;;;;;5004178;28;20199;-64
2024/01/11 07:34:47;;;;;;;34.93;14.47;;;-2.80;99.90;;;;;;5001483;28;20198;-64
2024/01/11 07:37:14;;;;;;;43.87;14.73;;;-2.80;99.90;;;;;;5002758;28;20469;-64
2024/01/11 07:39:40;;;;;;;40.83;15.43;;;-2.70;99.90;;;;;;4999576;28;20670;-64
2024/01/11 07:42:07;;;;;;;34.03;15.27;;;-2.70;99.90;;;;;;4992280;28;20199;-64
2024/01/11 07:44:34;;;;;;;43.23;16.57;;;-2.60;99.90;;;;;;4970363;28;20673;-64
2024/01/11 07:47:01;;;;;;;44.47;17.53;;;-2.70;99.90;;;;;;5003837;28;20904;-62
2024/01/11 07:49:28;;;;;;;38.67;16.03;;;-2.60;99.90;;;;;;5001388;28;20205;-62
2024/01/11 07:51:56;;;;;;;39.50;16.53;;;-2.60;99.90;;;;;;5002062;28;20205;-62
2024/01/11 07:54:23;;;;;;;40.70;15.80;;;-2.40;99.90;;;;;;5006868;28;20198;-62
2024/01/11 07:56:50;;;;;;;41.97;17.20;;;-2.70;99.90;;;;;;5000851;28;20202;-62
2024/01/11 07:59:16;;;;;;;42.87;16.87;;;-2.60;99.90;;;;;;4983258;28;20589;-62
2024/01/11 08:01:43;;;;;;;41.23;17.77;;;-2.60;99.90;;;;;;4984036;28;20222;-62
2024/01/11 08:04:10;;;;;;;39.97;17.23;;;-2.50;99.90;;;;;;5008157;28;20214;-64
2024/01/11 08:06:37;;;;;;;37.83;16.57;;;-2.50;99.90;;;;;;5003148;28;20311;-64
2024/01/11 08:09:05;;;;;;;42.30;16.90;;;-2.60;99.90;;;;;;5008723;28;20696;-64
2024/01/11 08:11:33;;;;;;;45.30;19.93;;;-2.40;99.90;;;;;;5012145;28;20287;-64
2024/01/11 08:13:59;;;;;;;50.63;17.93;;;-2.30;99.90;;;;;;4999440;28;20210;-64
2024/01/11 08:16:26;;;;;;;38.73;16.37;;;-2.40;99.90;;;;;;4966603;28;20212;-64
2024/01/11 08:18:54;;;;;;;42.27;16.93;;;-2.50;99.90;;;;;;5006121;28;20228;-64
2024/01/11 08:21:21;;;;;;;45.17;17.87;;;-2.50;99.90;;;;;;5008258;28;20282;-62
2024/01/11 08:23:48;;;;;;;45.63;18.27;;;-2.40;99.90;;;;;;5007689;28;20195;-62
2024/01/11 08:26:18;;;;;;;48.93;19.27;;;-2.40;99.90;;;;;;5007972;28;20216;-62
2024/01/11 08:28:45;;;;;;;45.33;19.23;;;-2.30;99.90;;;;;;5007793;28;21110;-62
2024/01/11 08:31:12;;;;;;;42.27;17.03;;;-2.40;99.90;;;;;;4963637;28;20221;-62
2024/01/11 08:33:39;;;;;;;47.20;17.83;;;-2.70;99.90;;;;;;5007147;28;20300;-62
2024/01/11 08:36:06;;;;;;;47.37;17.80;;;-2.20;99.90;;;;;;5007931;28;20214;-62
2024/01/11 08:38:33;;;;;;;44.43;19.07;;;-2.20;99.90;;;;;;5006005;28;20222;-62
2024/01/11 08:41:00;;;;;;;45.70;18.23;;;-2.20;99.90;;;;;;5004189;28;20673;-62
2024/01/11 08:43:28;;;;;;;41.90;17.90;;;-2.10;99.90;;;;;;5000542;28;20201;-62
2024/01/11 08:45:55;;;;;;;42.57;15.70;;;-2.20;99.90;;;;;;4999631;28;20207;-62
2024/01/11 08:48:22;;;;;;;41.53;17.33;;;-2.10;99.90;;;;;;4973806;28;20215;-62
2024/01/11 08:50:49;;;;;;;50.63;20.03;;;-2.10;99.90;;;;;;5007702;28;20209;-62
2024/01/11 08:53:17;;;;;;;43.50;15.80;;;-2.10;99.90;;;;;;5002033;28;20199;-62
2024/01/11 08:55:44;;;;;;;43.80;17.83;;;-2.00;99.90;;;;;;5004949;28;20672;-62
2024/01/11 08:58:11;;;;;;;49.07;17.73;;;-2.00;99.90;;;;;;5008441;28;20595;-62
2024/01/11 09:00:39;;;;;;;42.60;16.40;;;-2.00;99.90;;;;;;5003393;28;20238;-62
2024/01/11 09:03:06;;;;;;;42.67;16.83;;;-1.90;99.90;;;;;;4961780;28;20620;-62
2024/01/11 09:05:32;;;;;;;41.80;18.87;;;-2.00;99.90;;;;;;5007408;28;20194;-62
2024/01/11 09:07:59;;;;;;;50.60;18.87;;;-2.00;99.90;;;;;;5002762;28;20598;-62
2024/01/11 09:10:27;;;;;;;43.50;17.87;;;-1.90;99.90;;;;;;5006592;28;20763;-62
2024/01/11 09:12:54;;;;;;;48.30;17.27;;;-2.00;99.90;;;;;;5000468;28;20228;-63
2024/01/11 09:15:21;;;;;;;48.37;19.27;;;-1.90;99.90;;;;;;5005116;28;20211;-62
2024/01/11 09:17:49;;;;;;;53.83;18.53;;;-1.90;99.90;;;;;;4972261;28;20206;-62
2024/01/11 09:20:18;;;;;;;39.63;17.67;;;-1.80;99.90;;;;;;5004081;28;20589;-62
2024/01/11 09:22:46;;;;;;;38.90;16.03;;;-1.80;99.90;;;;;;4999755;28;20325;-62
2024/01/11 09:25:13;;;;;;;35.67;16.67;;;-1.80;99.90;;;;;;4997211;28;20940;-62
2024/01/11 09:27:40;;;;;;;54.13;19.40;;;-1.70;99.90;;;;;;5004815;28;21504;-62
2024/01/11 09:30:08;;;;;;;48.20;16.87;;;-1.70;99.90;;;;;;5004087;28;20720;-62
2024/01/11 09:32:36;;;;;;;39.23;16.40;;;-1.60;99.90;;;;;;4992705;28;20736;-63
2024/01/11 09:35:05;;;;;;;40.70;16.03;;;-1.30;99.90;;;;;;4980964;28;20215;-62
2024/01/11 09:37:32;;;;;;;38.50;15.33;;;-1.60;99.90;;;;;;5000079;28;20200;-63
2024/01/11 09:40:00;;;;;;;43.87;17.57;;;-1.50;99.90;;;;;;5003747;28;20225;-62
2024/01/11 09:42:27;;;;;;;45.50;16.83;;;-1.60;99.90;;;;;;5005691;28;21537;-62
2024/01/11 09:44:55;;;;;;;38.40;16.40;;;-1.50;99.90;;;;;;4997842;28;20251;-62
2024/01/11 09:47:23;;;;;;;33.90;16.40;;;-1.50;99.90;;;;;;5003648;28;20216;-62
2024/01/11 09:49:51;;;;;;;46.97;18.00;;;-0.70;99.90;;;;;;4970235;28;20284;-62
2024/01/11 09:52:21;;;;;;;52.83;17.90;;;-0.30;99.90;;;;;;4998575;28;20930;-62
2024/01/11 09:54:48;;;;;;;29.73;14.90;;;-1.40;99.90;;;;;;5000067;28;20201;-62
2024/01/11 09:57:23;;;;;;;37.50;16.57;;;-1.40;99.90;;;;;;5003566;28;20241;-62
2024/01/11 09:59:52;;;;;;;38.73;16.37;;;-1.20;99.90;;;;;;4998796;28;20220;-62
2024/01/11 10:02:19;;;;;;;39.30;17.33;;;-1.30;99.90;;;;;;5005214;28;20203;-62
2024/01/11 10:04:46;;;;;;;42.83;16.50;;;-1.20;99.90;;;;;;4974991;28;20204;-62
2024/01/11 10:07:15;;;;;;;44.33;16.53;;;-1.20;99.90;;;;;;4998970;28;20221;-62
2024/01/11 10:09:43;;;;;;;34.53;16.03;;;-1.20;99.90;;;;;;5004374;28;20202;-62
2024/01/11 10:12:11;;;;;;;37.57;16.07;;;-1.10;99.90;;;;;;5002380;28;20195;-62
2024/01/11 10:14:38;;;;;;;33.07;15.30;;;-1.10;99.90;;;;;;5002444;28;20196;-62
2024/01/11 10:17:05;;;;;;;38.63;15.53;;;-1.20;99.90;;;;;;5003526;28;20192;-62
2024/01/11 10:19:32;;;;;;;30.20;15.17;;;-1.30;99.90;;;;;;5004778;28;20227;-62
2024/01/11 10:21:59;;;;;;;43.10;16.00;;;-1.70;99.90;;;;;;4965552;28;20992;-62
2024/01/11 10:24:26;;;;;;;35.53;16.03;;;-1.10;99.90;;;;;;5005763;28;20261;-62
2024/01/11 10:26:56;;;;;;;36.53;15.73;;;-1.00;99.90;;;;;;5002833;28;20196;-62
2024/01/11 10:29:23;;;;;;;40.60;15.70;;;-0.30;99.90;;;;;;5002045;28;20715;-63
2024/01/11 10:31:51;;;;;;;43.70;17.80;;;-1.00;99.90;;;;;;5000991;28;20395;-62
2024/01/11 10:34:18;;;;;;;41.57;17.90;;;-0.90;99.90;;;;;;5004442;28;20198;-62
2024/01/11 10:36:45;;;;;;;32.67;14.30;;;-0.90;99.90;;;;;;4971010;28;20214;-63
2024/01/11 10:39:13;;;;;;;38.77;17.33;;;-1.00;99.90;;;;;;5002617;28;20196;-62
2024/01/11 10:41:41;;;;;;;39.47;16.37;;;-0.90;99.90;;;;;;5008302;28;20326;-62
2024/01/11 10:44:19;;;;;;;35.90;15.30;;;-0.80;99.90;;;;;;5003883;28;20204;-62
2024/01/11 10:46:47;;;;;;;33.17;15.23;;;-0.90;99.90;;;;;;5006191;28;20585;-65
2024/01/11 10:49:18;;;;;;;35.43;15.40;;;-0.80;99.90;;;;;;5001208;28;20211;-63
2024/01/11 10:51:50;;;;;;;38.27;16.67;;;-0.70;99.90;;;;;;4971825;28;21011;-62
2024/01/11 10:54:18;;;;;;;30.53;14.53;;;-0.60;99.90;;;;;;5003605;28;20196;-64
2024/01/11 10:56:47;;;;;;;35.20;14.93;;;-0.70;99.90;;;;;;5004097;28;20680;-62
2024/01/11 10:59:17;;;;;;;32.13;14.90;;;-0.80;99.90;;;;;;5005487;28;20214;-62
2024/01/11 11:01:45;;;;;;;36.20;15.63;;;-0.60;99.90;;;;;;5009819;28;20583;-63
2024/01/11 11:04:13;;;;;;;30.00;14.80;;;-0.60;99.90;;;;;;5002929;28;20691;-62
2024/01/11 11:06:40;;;;;;;30.37;14.73;;;-0.50;99.90;;;;;;5002703;28;20310;-62
2024/01/11 11:09:08;;;;;;;27.17;14.10;;;-0.60;99.90;;;;;;4966384;28;20219;-62
2024/01/11 11:11:36;;;;;;;38.50;15.00;;;-0.40;99.90;;;;;;5003412;28;20573;-62
2024/01/11 11:14:04;;;;;;;27.30;13.70;;;-1.50;99.90;;;;;;5003496;28;20253;-63
2024/01/11 11:16:33;;;;;;;32.20;15.10;;;-0.60;99.90;;;;;;5003849;28;20202;-63
2024/01/11 11:19:00;;;;;;;31.07;13.63;;;-0.40;99.90;;;;;;5003033;28;20208;-62
2024/01/11 11:21:27;;;;;;;30.10;14.17;;;-0.50;99.90;;;;;;4996539;28;20334;-63
2024/01/11 11:23:56;;;;;;;32.83;13.97;;;-0.50;99.90;;;;;;4970757;28;20219;-62
2024/01/11 11:26:23;;;;;;;33.23;13.83;;;-0.20;99.90;;;;;;5001366;28;20229;-62
2024/01/11 11:28:50;;;;;;;29.83;13.00;;;-0.30;99.90;;;;;;5006275;28;20197;-63
2024/01/11 11:31:37;;;;;;;28.93;13.47;;;-0.30;99.90;;;;;;5000626;28;20209;-62
2024/01/11 11:34:05;;;;;;;30.63;12.73;;;-0.30;99.90;;;;;;5002831;28;20689;-63
2024/01/11 11:36:34;;;;;;;27.40;13.17;;;-0.20;99.90;;;;;;4999789;28;20209;-63
2024/01/11 11:39:02;;;;;;;30.70;13.43;;;-0.20;99.90;;;;;;4973918;28;20308;-63
2024/01/11 11:41:31;;;;;;;35.47;12.90;;;-0.20;99.90;;;;;;5004644;28;20761;-62
2024/01/11 11:44:02;;;;;;;29.37;12.57;;;-0.20;99.90;;;;;;5006368;28;20301;-63
2024/01/11 11:46:29;;;;;;;24.90;11.73;;;-0.10;99.90;;;;;;5003300;28;20910;-63
2024/01/11 11:48:57;;;;;;;26.63;11.57;;;-0.10;99.90;;;;;;5008101;28;20296;-63
2024/01/11 11:51:24;;;;;;;25.33;11.93;;;-0.10;99.90;;;;;;5003388;28;20582;-62
2024/01/11 11:53:53;;;;;;;24.10;10.60;;;1.20;99.90;;;;;;4975974;28;20225;-63
2024/01/11 11:56:21;;;;;;;25.63;12.30;;;0.00;99.90;;;;;;4989836;28;20219;-62
2024/01/11 11:58:52;;;;;;;27.17;11.87;;;0.10;99.90;;;;;;5002465;28;21537;-63
2024/01/11 12:01:19;;;;;;;24.03;10.90;;;0.00;99.90;;;;;;4986119;28;20710;-63
2024/01/11 12:03:49;;;;;;;23.53;12.00;;;0.10;99.90;;;;;;5001761;28;20502;-62
2024/01/11 12:06:18;;;;;;;24.47;11.43;;;0.20;99.90;;;;;;4989526;28;21865;-65
2024/01/11 12:08:45;;;;;;;21.53;11.77;;;0.20;99.90;;;;;;5003820;28;20570;-63
2024/01/11 12:11:16;;;;;;;24.73;11.47;;;0.10;99.90;;;;;;4963434;28;20535;-63
2024/01/11 12:13:44;;;;;;;27.43;12.30;;;0.10;99.90;;;;;;5006469;28;20715;-63
2024/01/11 12:16:11;;;;;;;22.03;9.93;;;0.10;99.90;;;;;;4991436;28;20202;-63
2024/01/11 12:18:38;;;;;;;25.27;11.10;;;0.00;99.90;;;;;;5001421;28;20245;-62
2024/01/11 12:21:05;;;;;;;26.47;11.67;;;0.10;99.90;;;;;;4995838;28;20220;-62
2024/01/11 12:23:34;;;;;;;29.87;12.43;;;0.10;99.90;;;;;;4996604;28;20306;-63
2024/01/11 12:26:05;;;;;;;21.70;11.20;;;0.00;99.90;;;;;;4967692;28;20592;-63
2024/01/11 12:28:32;;;;;;;24.03;10.60;;;0.00;99.90;;;;;;5003892;28;20200;-63
2024/01/11 12:30:59;;;;;;;18.40;10.47;;;0.10;99.90;;;;;;4992748;28;20223;-62
2024/01/11 12:33:28;;;;;;;23.70;11.17;;;0.40;99.90;;;;;;4987308;28;20525;-63